Time;durP1;ratioP1;P1;durP2;ratioP2;P2;SDS_P1;SDS_P2;PMS_P1;PMS_P2;Temp;Humidity;BMP_temperature;BMP_pressure;BME280_temperature;BME280_humidity;BME280_pressure;Samples;Min_cycle;Max_cycle;Signal;HPM_P1;HPM_P2
2023/06/21 00:01:40;;;;;;;11.73;5.18;;;;;;;;;;5055180;28;20212;-63
2023/06/21 00:04:07;;;;;;;5.85;5.28;;;;;;;;;;5055637;28;20263;-64
2023/06/21 00:06:36;;;;;;;5.90;5.22;;;;;;;;;;5050741;28;20233;-63
2023/06/21 00:09:04;;;;;;;6.93;4.75;;;;;;;;;;5050166;28;20218;-63
2023/06/21 00:11:31;;;;;;;5.97;4.90;;;;;;;;;;5052600;28;20211;-62
2023/06/21 00:13:59;;;;;;;5.50;4.40;;;;;;;;;;5044544;28;20872;-63
2023/06/21 00:16:26;;;;;;;5.60;5.10;;;;;;;;;;5044033;28;20693;-63
2023/06/21 00:18:53;;;;;;;5.25;4.85;;;;;;;;;;5054388;28;20249;-63
2023/06/21 00:21:20;;;;;;;6.63;5.10;;;;;;;;;;5058773;28;20227;-62
2023/06/21 00:23:47;;;;;;;6.47;4.63;;;;;;;;;;5058653;28;20353;-62
2023/06/21 00:26:14;;;;;;;6.68;5.35;;;;;;;;;;5060784;28;20356;-62
2023/06/21 00:28:41;;;;;;;5.28;4.78;;;;;;;;;;5060901;28;20265;-63
2023/06/21 00:31:10;;;;;;;6.70;5.35;;;;;;;;;;5047443;28;20212;-63
2023/06/21 00:33:38;;;;;;;5.32;4.93;;;;;;;;;;5041871;28;20207;-62
2023/06/21 00:36:05;;;;;;;8.00;5.57;;;;;;;;;;5054374;28;20300;-63
2023/06/21 00:38:34;;;;;;;7.00;5.72;;;;;;;;;;5051157;28;20204;-62
2023/06/21 00:41:02;;;;;;;5.18;4.68;;;;;;;;;;5052409;28;20382;-63
2023/06/21 00:43:29;;;;;;;7.82;5.30;;;;;;;;;;5052228;28;20224;-62
2023/06/21 00:45:57;;;;;;;7.65;5.60;;;;;;;;;;5049785;28;20235;-63
2023/06/21 00:48:28;;;;;;;5.75;5.28;;;;;;;;;;5049900;28;20212;-63
2023/06/21 00:50:55;;;;;;;5.30;4.85;;;;;;;;;;5049779;28;20650;-63
2023/06/21 00:53:23;;;;;;;6.03;5.43;;;;;;;;;;5049920;28;20218;-63
2023/06/21 00:55:50;;;;;;;8.10;5.50;;;;;;;;;;5050395;28;20607;-63
2023/06/21 00:58:20;;;;;;;6.80;5.13;;;;;;;;;;5055749;28;20207;-63
2023/06/21 01:00:47;;;;;;;8.32;5.90;;;;;;;;;;5066909;28;20206;-63
2023/06/21 01:03:14;;;;;;;6.88;4.97;;;;;;;;;;5067185;28;20253;-62
2023/06/21 01:05:43;;;;;;;6.85;5.43;;;;;;;;;;5062262;28;20226;-63
2023/06/21 01:08:16;;;;;;;4.88;4.53;;;;;;;;;;5066278;28;20230;-63
2023/06/21 01:10:47;;;;;;;8.13;5.70;;;;;;;;;;5068257;28;20314;-63
2023/06/21 01:13:21;;;;;;;5.47;4.97;;;;;;;;;;5067437;28;20920;-63
2023/06/21 01:15:49;;;;;;;6.05;5.60;;;;;;;;;;5056809;28;20207;-63
2023/06/21 01:18:17;;;;;;;5.50;4.93;;;;;;;;;;5068428;28;20276;-62
2023/06/21 01:20:49;;;;;;;5.43;5.03;;;;;;;;;;5051275;28;20231;-62
2023/06/21 01:23:23;;;;;;;5.40;4.90;;;;;;;;;;5064712;28;20558;-62
2023/06/21 01:25:57;;;;;;;5.88;5.38;;;;;;;;;;5049685;28;20318;-62
2023/06/21 01:28:32;;;;;;;5.95;5.35;;;;;;;;;;5065163;28;20203;-63
2023/06/21 01:31:01;;;;;;;6.60;6.00;;;;;;;;;;5068992;28;20203;-62
2023/06/21 01:33:30;;;;;;;6.93;5.80;;;;;;;;;;5064566;28;20311;-63
2023/06/21 01:35:57;;;;;;;5.90;5.32;;;;;;;;;;5049560;28;20196;-62
2023/06/21 01:38:24;;;;;;;6.72;4.85;;;;;;;;;;5066245;28;20223;-63
2023/06/21 01:40:51;;;;;;;6.53;5.25;;;;;;;;;;5069120;28;20281;-63
2023/06/21 01:43:19;;;;;;;5.68;5.18;;;;;;;;;;5067115;28;20222;-63
2023/06/21 01:45:46;;;;;;;5.72;5.07;;;;;;;;;;5062968;28;20670;-63
2023/06/21 01:48:15;;;;;;;11.88;5.20;;;;;;;;;;5048618;28;20261;-63
2023/06/21 01:50:43;;;;;;;6.22;4.93;;;;;;;;;;5048690;28;20616;-63
2023/06/21 01:53:13;;;;;;;5.60;5.10;;;;;;;;;;5065601;28;20215;-63
2023/06/21 01:55:41;;;;;;;7.88;5.05;;;;;;;;;;5054085;28;20212;-63
2023/06/21 01:58:08;;;;;;;5.57;5.10;;;;;;;;;;5058447;28;20239;-63
2023/06/21 02:00:35;;;;;;;5.18;4.65;;;;;;;;;;5063941;28;20214;-62
2023/06/21 02:03:04;;;;;;;4.97;4.57;;;;;;;;;;5068596;28;20242;-63
2023/06/21 02:05:34;;;;;;;5.47;4.97;;;;;;;;;;5067097;28;20322;-63
2023/06/21 02:08:04;;;;;;;5.55;5.05;;;;;;;;;;5063003;28;20209;-63
2023/06/21 02:10:31;;;;;;;7.25;4.70;;;;;;;;;;5068540;28;20206;-63
2023/06/21 02:12:58;;;;;;;7.25;5.32;;;;;;;;;;5068174;28;20227;-63
2023/06/21 02:15:26;;;;;;;5.40;4.90;;;;;;;;;;5062943;28;20223;-63
2023/06/21 02:17:53;;;;;;;4.85;4.43;;;;;;;;;;5052952;28;20659;-63
2023/06/21 02:20:22;;;;;;;6.47;4.40;;;;;;;;;;5048068;28;20808;-63
2023/06/21 02:22:50;;;;;;;6.15;5.28;;;;;;;;;;5048133;28;20215;-62
2023/06/21 02:25:18;;;;;;;5.30;4.80;;;;;;;;;;5048643;28;20261;-64
2023/06/21 02:27:45;;;;;;;6.07;5.22;;;;;;;;;;5059681;28;20202;-63
2023/06/21 02:30:12;;;;;;;4.80;4.50;;;;;;;;;;5067518;28;20353;-63
2023/06/21 02:32:39;;;;;;;5.38;4.97;;;;;;;;;;5068303;28;20233;-63
2023/06/21 02:35:07;;;;;;;5.75;4.53;;;;;;;;;;5060879;28;20272;-63
2023/06/21 02:37:34;;;;;;;5.57;5.07;;;;;;;;;;5059643;28;20210;-62
2023/06/21 02:40:09;;;;;;;4.97;4.53;;;;;;;;;;5066370;28;20214;-62
2023/06/21 02:42:36;;;;;;;5.07;4.53;;;;;;;;;;5054820;28;20280;-62
2023/06/21 02:45:03;;;;;;;5.30;4.90;;;;;;;;;;5051202;28;20222;-63
2023/06/21 02:47:31;;;;;;;6.03;4.97;;;;;;;;;;5065484;28;20732;-62
2023/06/21 02:49:58;;;;;;;5.38;4.53;;;;;;;;;;5058108;28;20222;-62
2023/06/21 02:52:25;;;;;;;8.35;4.80;;;;;;;;;;5046800;28;20212;-63
2023/06/21 02:54:52;;;;;;;6.07;4.88;;;;;;;;;;5056848;28;20218;-63
2023/06/21 02:57:21;;;;;;;4.82;4.53;;;;;;;;;;5065194;28;20573;-62
2023/06/21 02:59:48;;;;;;;5.10;4.57;;;;;;;;;;5065543;28;20203;-63
2023/06/21 03:02:16;;;;;;;6.50;4.45;;;;;;;;;;5055352;28;20212;-62
2023/06/21 03:04:43;;;;;;;11.10;4.50;;;;;;;;;;5047077;28;20207;-63
2023/06/21 03:07:10;;;;;;;5.43;4.72;;;;;;;;;;5046958;28;20812;-63
2023/06/21 03:09:38;;;;;;;4.95;4.53;;;;;;;;;;5058228;28;20297;-63
2023/06/21 03:12:07;;;;;;;5.00;4.50;;;;;;;;;;5058507;28;20211;-63
2023/06/21 03:14:37;;;;;;;5.13;4.65;;;;;;;;;;5047746;28;20771;-62
2023/06/21 03:17:04;;;;;;;5.35;4.43;;;;;;;;;;5054412;28;20219;-63
2023/06/21 03:19:31;;;;;;;10.77;5.57;;;;;;;;;;5063820;28;20218;-62
2023/06/21 03:21:58;;;;;;;5.40;4.63;;;;;;;;;;5064061;28;20351;-62
2023/06/21 03:24:26;;;;;;;5.00;4.50;;;;;;;;;;5047447;28;20211;-63
2023/06/21 03:26:53;;;;;;;4.70;4.30;;;;;;;;;;5051732;28;20231;-62
2023/06/21 03:29:21;;;;;;;5.05;4.63;;;;;;;;;;5047450;28;20243;-63
2023/06/21 03:31:50;;;;;;;5.75;4.50;;;;;;;;;;5061456;28;20219;-63
2023/06/21 03:34:17;;;;;;;5.03;4.43;;;;;;;;;;5069838;28;20211;-63
2023/06/21 03:36:44;;;;;;;5.10;4.60;;;;;;;;;;5065867;28;20203;-62
2023/06/21 03:39:11;;;;;;;5.05;4.60;;;;;;;;;;5061002;28;20207;-63
2023/06/21 03:41:38;;;;;;;8.20;4.60;;;;;;;;;;5051642;28;20258;-63
2023/06/21 03:44:05;;;;;;;4.57;4.20;;;;;;;;;;5061951;28;20881;-62
2023/06/21 03:46:32;;;;;;;4.95;4.45;;;;;;;;;;5053599;28;20246;-62
2023/06/21 03:49:00;;;;;;;4.85;4.45;;;;;;;;;;5051052;28;20203;-62
2023/06/21 03:51:27;;;;;;;4.53;4.18;;;;;;;;;;5055107;28;20199;-63
2023/06/21 03:53:54;;;;;;;9.05;4.68;;;;;;;;;;5064258;28;20728;-63
2023/06/21 03:56:21;;;;;;;5.60;5.03;;;;;;;;;;5052349;28;20200;-62
2023/06/21 03:58:48;;;;;;;5.40;4.00;;;;;;;;;;5052766;28;20219;-63
2023/06/21 04:01:16;;;;;;;5.10;4.25;;;;;;;;;;5066527;28;20206;-63
2023/06/21 04:03:43;;;;;;;5.60;5.05;;;;;;;;;;5051987;28;20621;-63
2023/06/21 04:06:11;;;;;;;6.93;4.78;;;;;;;;;;5070938;28;20231;-63
2023/06/21 04:08:38;;;;;;;4.57;4.28;;;;;;;;;;5050550;28;20211;-63
2023/06/21 04:11:05;;;;;;;4.35;3.92;;;;;;;;;;5050575;28;20219;-63
2023/06/21 04:13:32;;;;;;;4.45;4.05;;;;;;;;;;5051090;28;20212;-63
2023/06/21 04:15:59;;;;;;;5.03;4.60;;;;;;;;;;5058523;28;20195;-62
2023/06/21 04:18:26;;;;;;;7.90;4.78;;;;;;;;;;5055356;28;20215;-63
2023/06/21 04:20:53;;;;;;;8.70;4.40;;;;;;;;;;5056103;28;20231;-63
2023/06/21 04:23:22;;;;;;;5.75;4.68;;;;;;;;;;5067598;28;20732;-62
2023/06/21 04:25:49;;;;;;;5.22;4.40;;;;;;;;;;5057415;28;21220;-62
2023/06/21 04:28:16;;;;;;;4.63;4.20;;;;;;;;;;5065771;28;20203;-63
2023/06/21 04:30:43;;;;;;;4.28;3.90;;;;;;;;;;5051369;28;20257;-63
2023/06/21 04:33:10;;;;;;;4.30;4.00;;;;;;;;;;5057429;28;20218;-62
2023/06/21 04:35:38;;;;;;;5.95;4.78;;;;;;;;;;5062755;28;20208;-63
2023/06/21 04:38:05;;;;;;;6.20;3.80;;;;;;;;;;5063614;28;20300;-63
2023/06/21 04:40:33;;;;;;;11.35;4.43;;;;;;;;;;5053860;28;20237;-63
2023/06/21 04:43:02;;;;;;;4.88;4.47;;;;;;;;;;5061334;28;20249;-63
2023/06/21 04:45:34;;;;;;;8.25;4.50;;;;;;;;;;5049643;28;20211;-63
2023/06/21 04:48:03;;;;;;;4.90;4.43;;;;;;;;;;5065716;28;20226;-63
2023/06/21 04:50:30;;;;;;;7.80;5.00;;;;;;;;;;5054225;28;20231;-62
2023/06/21 04:52:59;;;;;;;5.13;4.28;;;;;;;;;;5048144;28;20208;-61
2023/06/21 04:55:26;;;;;;;7.68;4.32;;;;;;;;;;5052547;28;20666;-62
2023/06/21 04:57:55;;;;;;;5.53;4.03;;;;;;;;;;5050308;28;20211;-62
2023/06/21 05:00:22;;;;;;;12.05;4.90;;;;;;;;;;5050020;28;20322;-61
2023/06/21 05:02:49;;;;;;;4.82;4.32;;;;;;;;;;5060647;28;20285;-61
2023/06/21 05:05:17;;;;;;;6.38;5.47;;;;;;;;;;5062901;28;20268;-61
2023/06/21 05:07:44;;;;;;;6.68;5.53;;;;;;;;;;5068962;28;20705;-62
2023/06/21 05:10:11;;;;;;;8.73;5.15;;;;;;;;;;5051309;28;20262;-61
2023/06/21 05:12:38;;;;;;;6.15;5.55;;;;;;;;;;5051737;28;20227;-61
2023/06/21 05:15:07;;;;;;;5.63;5.18;;;;;;;;;;5050472;28;20212;-61
2023/06/21 05:17:34;;;;;;;6.28;5.65;;;;;;;;;;5049328;28;20301;-61
2023/06/21 05:20:02;;;;;;;5.68;5.18;;;;;;;;;;5048450;28;20207;-61
2023/06/21 05:22:29;;;;;;;10.02;5.00;;;;;;;;;;5049172;28;20350;-62
2023/06/21 05:24:56;;;;;;;6.78;4.38;;;;;;;;;;5062509;28;20218;-61
2023/06/21 05:27:23;;;;;;;6.45;4.00;;;;;;;;;;5048289;28;20230;-62
2023/06/21 05:29:51;;;;;;;4.70;4.30;;;;;;;;;;5048490;28;20814;-62
2023/06/21 05:32:20;;;;;;;7.55;4.65;;;;;;;;;;5048543;28;20211;-62
2023/06/21 05:34:47;;;;;;;4.32;4.03;;;;;;;;;;5064391;28;20207;-63
2023/06/21 05:37:14;;;;;;;3.60;3.35;;;;;;;;;;5059030;28;20195;-63
2023/06/21 05:39:44;;;;;;;6.60;4.18;;;;;;;;;;5054902;28;20834;-66
2023/06/21 05:42:11;;;;;;;4.32;3.97;;;;;;;;;;5048611;28;20218;-67
2023/06/21 05:44:38;;;;;;;5.50;3.63;;;;;;;;;;5062902;28;20206;-66
2023/06/21 05:47:05;;;;;;;5.95;4.15;;;;;;;;;;5067363;28;20589;-69
2023/06/21 05:49:34;;;;;;;4.00;3.70;;;;;;;;;;5058516;28;20216;-67
2023/06/21 05:52:01;;;;;;;4.70;4.30;;;;;;;;;;5066672;28;20211;-67
2023/06/21 05:54:28;;;;;;;7.03;4.38;;;;;;;;;;5049619;28;22184;-66
2023/06/21 05:56:55;;;;;;;6.00;4.22;;;;;;;;;;5050851;28;20667;-66
2023/06/21 05:59:22;;;;;;;4.32;4.00;;;;;;;;;;5055235;28;20257;-63
2023/06/21 06:01:49;;;;;;;4.00;3.67;;;;;;;;;;5049387;28;20218;-70
2023/06/21 06:04:16;;;;;;;4.18;3.75;;;;;;;;;;5048298;28;20304;-65
2023/06/21 06:06:44;;;;;;;5.10;3.95;;;;;;;;;;5054187;28;20677;-68
2023/06/21 06:09:12;;;;;;;6.47;3.72;;;;;;;;;;5052067;28;20207;-67
2023/06/21 06:11:39;;;;;;;7.05;4.55;;;;;;;;;;5048251;28;20733;-67
2023/06/21 06:14:06;;;;;;;6.30;4.43;;;;;;;;;;5047685;28;20241;-67
2023/06/21 06:16:33;;;;;;;5.47;3.85;;;;;;;;;;5060056;28;20215;-66
2023/06/21 06:19:00;;;;;;;4.65;4.28;;;;;;;;;;5061846;28;20214;-67
2023/06/21 06:21:28;;;;;;;4.00;3.70;;;;;;;;;;5067968;28;20227;-66
2023/06/21 06:23:56;;;;;;;5.65;4.68;;;;;;;;;;5064142;28;20203;-67
2023/06/21 06:26:24;;;;;;;4.03;3.80;;;;;;;;;;5057367;28;20204;-67
2023/06/21 06:28:51;;;;;;;3.55;3.25;;;;;;;;;;5068163;28;20648;-67
2023/06/21 06:31:20;;;;;;;3.88;3.50;;;;;;;;;;5067856;28;20610;-67
2023/06/21 06:33:47;;;;;;;4.95;3.75;;;;;;;;;;5067680;28;20305;-67
2023/06/21 06:36:14;;;;;;;4.05;3.83;;;;;;;;;;5067841;28;20762;-67
2023/06/21 06:38:41;;;;;;;3.95;3.65;;;;;;;;;;5067917;28;20229;-67
2023/06/21 06:41:09;;;;;;;4.25;3.47;;;;;;;;;;5063133;28;20204;-66
2023/06/21 06:43:36;;;;;;;5.63;3.42;;;;;;;;;;5055249;28;20637;-66
2023/06/21 06:46:04;;;;;;;10.50;4.28;;;;;;;;;;5066239;28;20222;-67
2023/06/21 06:48:31;;;;;;;4.32;3.92;;;;;;;;;;5066778;28;20226;-67
2023/06/21 06:50:58;;;;;;;3.75;3.47;;;;;;;;;;5063277;28;20210;-66
2023/06/21 06:53:25;;;;;;;4.30;3.53;;;;;;;;;;5066936;28;20215;-67
2023/06/21 06:55:53;;;;;;;5.07;3.50;;;;;;;;;;5066348;28;20207;-67
2023/06/21 06:58:22;;;;;;;3.70;3.40;;;;;;;;;;5066676;28;20705;-66
2023/06/21 07:00:49;;;;;;;3.58;3.28;;;;;;;;;;5061248;28;20218;-67
2023/06/21 07:03:16;;;;;;;4.10;3.60;;;;;;;;;;5061363;28;20255;-66
2023/06/21 07:05:43;;;;;;;5.75;3.50;;;;;;;;;;5049453;28;20940;-66
2023/06/21 07:08:11;;;;;;;3.53;3.30;;;;;;;;;;5050882;28;20238;-65
2023/06/21 07:10:38;;;;;;;4.43;4.07;;;;;;;;;;5059608;28;20293;-66
2023/06/21 07:13:05;;;;;;;3.90;3.58;;;;;;;;;;5064600;28;20213;-66
2023/06/21 07:15:34;;;;;;;4.07;3.13;;;;;;;;;;5050835;28;20636;-66
2023/06/21 07:18:01;;;;;;;4.20;3.85;;;;;;;;;;5057828;28;20210;-66
2023/06/21 07:20:28;;;;;;;3.92;3.60;;;;;;;;;;5070848;28;20210;-66
2023/06/21 07:22:56;;;;;;;6.47;3.78;;;;;;;;;;5070722;28;20226;-66
2023/06/21 07:25:23;;;;;;;4.53;4.13;;;;;;;;;;5065066;28;20199;-66
2023/06/21 07:27:50;;;;;;;4.10;3.80;;;;;;;;;;5050618;28;20337;-66
2023/06/21 07:30:17;;;;;;;3.72;3.42;;;;;;;;;;5054202;28;20208;-66
2023/06/21 07:32:47;;;;;;;4.35;3.92;;;;;;;;;;5062590;28;20234;-66
2023/06/21 07:35:14;;;;;;;5.32;3.97;;;;;;;;;;5070438;28;20211;-65
2023/06/21 07:37:42;;;;;;;4.55;4.18;;;;;;;;;;5066818;28;20564;-66
2023/06/21 07:40:10;;;;;;;4.07;3.78;;;;;;;;;;5050570;28;20215;-66
2023/06/21 07:42:37;;;;;;;4.45;4.15;;;;;;;;;;5050430;28;20230;-66
2023/06/21 07:45:04;;;;;;;3.83;3.58;;;;;;;;;;5050850;28;20219;-66
2023/06/21 07:47:31;;;;;;;3.88;3.67;;;;;;;;;;5050151;28;20227;-65
2023/06/21 07:50:00;;;;;;;4.25;3.95;;;;;;;;;;5050681;28;20216;-65
2023/06/21 07:52:27;;;;;;;4.35;4.05;;;;;;;;;;5052805;28;20250;-65
2023/06/21 07:54:54;;;;;;;5.00;4.20;;;;;;;;;;5069501;28;20584;-66
2023/06/21 07:57:21;;;;;;;4.40;4.00;;;;;;;;;;5064022;28;20204;-65
2023/06/21 07:59:48;;;;;;;5.18;4.10;;;;;;;;;;5050480;28;20231;-65
2023/06/21 08:02:17;;;;;;;4.82;4.20;;;;;;;;;;5051431;28;20573;-66
2023/06/21 08:04:44;;;;;;;10.52;4.10;;;;;;;;;;5051598;28;20222;-66
2023/06/21 08:07:13;;;;;;;4.43;3.75;;;;;;;;;;5056738;28;20245;-67
2023/06/21 08:09:40;;;;;;;4.30;3.90;;;;;;;;;;5054212;28;20211;-66
2023/06/21 08:12:08;;;;;;;4.00;3.75;;;;;;;;;;5070307;28;20218;-67
2023/06/21 08:14:35;;;;;;;4.43;4.00;;;;;;;;;;5069384;28;20301;-67
2023/06/21 08:17:02;;;;;;;3.70;3.50;;;;;;;;;;5058423;28;20557;-63
2023/06/21 08:19:29;;;;;;;4.32;3.85;;;;;;;;;;5049911;28;20235;-62
2023/06/21 08:21:57;;;;;;;4.20;3.90;;;;;;;;;;5062093;28;20235;-62
2023/06/21 08:24:26;;;;;;;4.13;3.72;;;;;;;;;;5059388;28;20211;-61
2023/06/21 08:26:53;;;;;;;4.50;4.07;;;;;;;;;;5065723;28;20297;-68
2023/06/21 08:29:20;;;;;;;4.95;4.05;;;;;;;;;;5049118;28;20730;-66
2023/06/21 08:31:47;;;;;;;3.75;3.53;;;;;;;;;;5049194;28;20215;-66
2023/06/21 08:34:14;;;;;;;4.45;4.05;;;;;;;;;;5049735;28;20302;-68
2023/06/21 08:36:41;;;;;;;4.05;3.70;;;;;;;;;;5049020;28;20266;-67
2023/06/21 08:39:08;;;;;;;4.38;4.07;;;;;;;;;;5048522;28;20211;-66
2023/06/21 08:41:39;;;;;;;4.22;3.90;;;;;;;;;;5048838;28;20786;-71
2023/06/21 08:44:06;;;;;;;4.15;3.78;;;;;;;;;;5049662;28;20203;-69
2023/06/21 08:46:35;;;;;;;9.43;4.07;;;;;;;;;;5049227;28;20670;-69
2023/06/21 08:49:05;;;;;;;7.85;3.70;;;;;;;;;;5049046;28;20231;-71
2023/06/21 08:51:32;;;;;;;8.07;4.57;;;;;;;;;;5058150;28;20295;-71
2023/06/21 08:54:02;;;;;;;4.18;3.78;;;;;;;;;;5066950;28;20209;-70
2023/06/21 08:56:30;;;;;;;4.47;3.80;;;;;;;;;;5067612;28;20718;-70
2023/06/21 08:59:01;;;;;;;4.50;3.92;;;;;;;;;;5065075;28;20580;-70
2023/06/21 09:01:30;;;;;;;3.88;3.65;;;;;;;;;;5049785;28;20207;-70
2023/06/21 09:03:57;;;;;;;4.20;3.90;;;;;;;;;;5046667;28;20240;-71
2023/06/21 09:06:25;;;;;;;4.13;3.83;;;;;;;;;;5048361;28;20204;-72
2023/06/21 09:08:52;;;;;;;4.32;4.03;;;;;;;;;;5045541;28;20252;-70
2023/06/21 09:11:21;;;;;;;14.95;4.18;;;;;;;;;;5048072;28;20291;-70
2023/06/21 09:13:49;;;;;;;4.00;3.72;;;;;;;;;;5048768;28;20311;-70
2023/06/21 09:16:18;;;;;;;3.53;3.22;;;;;;;;;;5048487;28;20205;-71
2023/06/21 09:18:45;;;;;;;3.60;3.30;;;;;;;;;;5055302;28;20206;-74
2023/06/21 09:21:13;;;;;;;4.60;4.25;;;;;;;;;;5054691;28;20223;-70
2023/06/21 09:23:40;;;;;;;3.30;3.10;;;;;;;;;;5066830;28;20206;-70
2023/06/21 09:26:07;;;;;;;3.50;3.30;;;;;;;;;;5067686;28;20207;-70
2023/06/21 09:28:34;;;;;;;3.20;3.10;;;;;;;;;;5054204;28;20709;-69
2023/06/21 09:31:01;;;;;;;2.75;2.60;;;;;;;;;;5048263;28;20207;-69
2023/06/21 09:33:31;;;;;;;4.40;2.60;;;;;;;;;;5048652;28;20218;-69
2023/06/21 09:35:58;;;;;;;2.92;2.60;;;;;;;;;;5048166;28;20212;-69
2023/06/21 09:38:28;;;;;;;4.68;3.00;;;;;;;;;;5050545;28;20207;-69
2023/06/21 09:40:55;;;;;;;3.53;2.78;;;;;;;;;;5067687;28;20738;-69
2023/06/21 09:43:23;;;;;;;3.20;2.53;;;;;;;;;;5067697;28;20221;-70
2023/06/21 09:45:59;;;;;;;3.00;2.70;;;;;;;;;;5067742;28;20207;-70
2023/06/21 09:48:26;;;;;;;5.95;2.60;;;;;;;;;;5065517;28;20242;-70
2023/06/21 09:50:56;;;;;;;2.70;2.60;;;;;;;;;;5067668;28;20741;-70
2023/06/21 09:53:24;;;;;;;1.85;1.85;;;;;;;;;;5067007;28;20586;-70
2023/06/21 09:55:51;;;;;;;2.60;2.50;;;;;;;;;;5059533;28;20207;-71
2023/06/21 09:58:18;;;;;;;2.55;2.45;;;;;;;;;;5057031;28;20296;-70
2023/06/21 10:00:45;;;;;;;5.03;2.50;;;;;;;;;;5066732;28;20222;-70
2023/06/21 10:03:12;;;;;;;2.30;2.20;;;;;;;;;;5060775;28;20243;-69
2023/06/21 10:05:54;;;;;;;2.70;2.58;;;;;;;;;;5045728;28;20211;-70
2023/06/21 10:08:25;;;;;;;2.10;2.00;;;;;;;;;;5054579;28;20273;-69
2023/06/21 10:10:52;;;;;;;2.17;2.10;;;;;;;;;;5059317;28;20253;-70
2023/06/21 10:13:25;;;;;;;2.10;2.05;;;;;;;;;;5062118;28;20566;-70
2023/06/21 10:15:52;;;;;;;2.20;2.10;;;;;;;;;;5056010;28;20259;-70
2023/06/21 10:18:19;;;;;;;2.17;2.08;;;;;;;;;;5061820;28;20210;-70
2023/06/21 10:20:46;;;;;;;2.70;2.58;;;;;;;;;;5067292;28;20669;-69
2023/06/21 10:23:15;;;;;;;2.95;2.75;;;;;;;;;;5067373;28;20904;-70
2023/06/21 10:25:45;;;;;;;3.25;3.05;;;;;;;;;;5066212;28;20305;-70
2023/06/21 10:28:15;;;;;;;2.70;2.60;;;;;;;;;;5055527;28;20862;-70
2023/06/21 10:30:44;;;;;;;3.00;2.80;;;;;;;;;;5047243;28;20590;-70
2023/06/21 10:33:11;;;;;;;3.53;3.22;;;;;;;;;;5066139;28;20341;-70
2023/06/21 10:35:42;;;;;;;2.95;2.75;;;;;;;;;;5066933;28;20213;-70
2023/06/21 10:38:11;;;;;;;3.38;3.17;;;;;;;;;;5067195;28;20209;-70
2023/06/21 10:40:38;;;;;;;2.95;2.85;;;;;;;;;;5066414;28;20898;-69
2023/06/21 10:43:07;;;;;;;2.95;2.75;;;;;;;;;;5066163;28;20217;-70
2023/06/21 10:45:35;;;;;;;2.97;2.78;;;;;;;;;;5065748;28;20301;-70
2023/06/21 10:48:02;;;;;;;3.08;2.88;;;;;;;;;;5066450;28;20218;-70
2023/06/21 10:50:29;;;;;;;2.85;2.75;;;;;;;;;;5066791;28;20267;-71
2023/06/21 10:52:57;;;;;;;3.20;3.00;;;;;;;;;;5066924;28;20552;-71
2023/06/21 10:55:24;;;;;;;2.58;2.42;;;;;;;;;;5067105;28;20589;-70
2023/06/21 10:57:52;;;;;;;2.67;2.50;;;;;;;;;;5066998;28;20237;-70
2023/06/21 11:00:23;;;;;;;3.30;2.63;;;;;;;;;;5054742;28;20290;-70
2023/06/21 11:02:50;;;;;;;2.58;2.47;;;;;;;;;;5046820;28;20293;-70
2023/06/21 11:05:18;;;;;;;2.75;2.55;;;;;;;;;;5046840;28;20211;-69
2023/06/21 11:07:52;;;;;;;2.75;2.50;;;;;;;;;;5058147;28;20214;-70
2023/06/21 11:10:22;;;;;;;2.28;2.17;;;;;;;;;;5063335;28;20302;-70
2023/06/21 11:12:49;;;;;;;2.15;2.05;;;;;;;;;;5063962;28;20277;-70
2023/06/21 11:15:25;;;;;;;2.38;2.28;;;;;;;;;;5048112;28;20763;-70
2023/06/21 11:17:56;;;;;;;2.50;2.30;;;;;;;;;;5046885;28;20256;-70
2023/06/21 11:20:25;;;;;;;2.28;2.17;;;;;;;;;;5051272;28;20288;-71
2023/06/21 11:23:08;;;;;;;2.42;2.33;;;;;;;;;;5055859;28;20208;-71
2023/06/21 11:25:36;;;;;;;2.30;2.20;;;;;;;;;;5046779;28;20206;-69
2023/06/21 11:28:31;;;;;;;1.83;1.83;;;;;;;;;;5059233;28;20210;-68
2023/06/21 11:31:17;;;;;;;2.50;2.40;;;;;;;;;;5053072;28;20694;-67
2023/06/21 11:33:49;;;;;;;2.90;2.70;;;;;;;;;;5055901;28;20207;-68
2023/06/21 11:36:20;;;;;;;2.70;2.60;;;;;;;;;;5052908;28;20249;-67
2023/06/21 11:38:52;;;;;;;2.80;2.60;;;;;;;;;;5045679;28;20237;-68
2023/06/21 11:41:36;;;;;;;2.63;2.40;;;;;;;;;;5046336;28;20253;-67
2023/06/21 11:44:03;;;;;;;2.60;2.40;;;;;;;;;;5047731;28;20219;-69
2023/06/21 11:46:32;;;;;;;4.15;2.53;;;;;;;;;;5047832;28;20590;-66
2023/06/21 11:49:01;;;;;;;2.58;2.47;;;;;;;;;;5045779;28;20241;-67
2023/06/21 11:51:29;;;;;;;2.78;2.58;;;;;;;;;;5060392;28;20215;-68
2023/06/21 11:53:57;;;;;;;2.30;2.20;;;;;;;;;;5050706;28;20211;-65
2023/06/21 11:56:29;;;;;;;2.80;2.42;;;;;;;;;;5050406;28;20211;-65
2023/06/21 11:58:58;;;;;;;3.90;2.33;;;;;;;;;;5056003;28;20290;-65
2023/06/21 12:01:25;;;;;;;2.95;2.65;;;;;;;;;;5068189;28;20198;-66
2023/06/21 12:03:57;;;;;;;2.47;2.38;;;;;;;;;;5058824;28;20238;-65
2023/06/21 12:06:26;;;;;;;2.25;2.15;;;;;;;;;;5069921;28;20628;-65
2023/06/21 12:08:57;;;;;;;2.47;2.38;;;;;;;;;;5057174;28;20707;-65
2023/06/21 12:11:26;;;;;;;2.55;2.45;;;;;;;;;;5052551;28;20294;-65
2023/06/21 12:13:53;;;;;;;2.90;2.80;;;;;;;;;;5049849;28;20246;-65
2023/06/21 12:16:20;;;;;;;2.63;2.47;;;;;;;;;;5058183;28;20210;-66
2023/06/21 12:18:47;;;;;;;2.63;2.53;;;;;;;;;;5056624;28;20284;-65
2023/06/21 12:21:14;;;;;;;2.47;2.38;;;;;;;;;;5065859;28;20291;-65
2023/06/21 12:23:42;;;;;;;2.58;2.47;;;;;;;;;;5069563;28;20684;-65
2023/06/21 12:26:09;;;;;;;2.92;2.72;;;;;;;;;;5068978;28;20210;-65
2023/06/21 12:28:37;;;;;;;3.20;2.50;;;;;;;;;;5058944;28;20218;-65
2023/06/21 12:31:04;;;;;;;2.50;2.40;;;;;;;;;;5063758;28;20666;-65
2023/06/21 12:33:33;;;;;;;2.58;2.47;;;;;;;;;;5066049;28;20210;-66
2023/06/21 12:36:14;;;;;;;2.55;2.45;;;;;;;;;;5068279;28;20223;-66
2023/06/21 12:38:45;;;;;;;2.70;2.60;;;;;;;;;;5067642;28;20316;-67
2023/06/21 12:41:15;;;;;;;2.70;2.60;;;;;;;;;;5049197;28;20210;-66
2023/06/21 12:43:43;;;;;;;2.60;2.50;;;;;;;;;;5048718;28;20218;-67
2023/06/21 12:46:11;;;;;;;4.10;3.00;;;;;;;;;;5060641;28;20556;-67
2023/06/21 12:48:43;;;;;;;2.72;2.60;;;;;;;;;;5069005;28;20202;-67
2023/06/21 12:51:10;;;;;;;2.30;2.20;;;;;;;;;;5068948;28;20214;-66
2023/06/21 12:53:38;;;;;;;4.55;2.30;;;;;;;;;;5065930;28;20206;-66
2023/06/21 12:56:08;;;;;;;2.42;2.22;;;;;;;;;;5049818;28;20203;-67
2023/06/21 12:58:36;;;;;;;2.90;2.80;;;;;;;;;;5049748;28;20203;-67
2023/06/21 13:01:03;;;;;;;2.33;2.22;;;;;;;;;;5055546;28;20218;-68
2023/06/21 13:03:30;;;;;;;2.70;2.60;;;;;;;;;;5054951;28;20609;-66
2023/06/21 13:05:57;;;;;;;2.95;2.78;;;;;;;;;;5048461;28;20249;-65
2023/06/21 13:08:24;;;;;;;4.18;3.00;;;;;;;;;;5053253;28;20272;-64
2023/06/21 13:10:53;;;;;;;2.55;2.45;;;;;;;;;;5048664;28;20233;-67
2023/06/21 13:13:21;;;;;;;3.08;2.80;;;;;;;;;;5047558;28;20214;-65
2023/06/21 13:15:48;;;;;;;2.90;2.80;;;;;;;;;;5052527;28;20219;-64
2023/06/21 13:18:18;;;;;;;2.63;2.47;;;;;;;;;;5049015;28;20207;-65
2023/06/21 13:20:45;;;;;;;2.33;2.22;;;;;;;;;;5055808;28;20281;-64
2023/06/21 13:23:12;;;;;;;2.60;2.50;;;;;;;;;;5066276;28;20237;-64
2023/06/21 13:25:39;;;;;;;2.80;2.70;;;;;;;;;;5068414;28;20210;-64
2023/06/21 13:28:06;;;;;;;2.80;2.60;;;;;;;;;;5049665;28;20214;-64
2023/06/21 13:30:34;;;;;;;2.70;2.60;;;;;;;;;;5055504;28;20234;-65
2023/06/21 13:33:01;;;;;;;3.92;2.70;;;;;;;;;;5054404;28;20215;-64
2023/06/21 13:35:28;;;;;;;3.20;3.00;;;;;;;;;;5047858;28;20713;-64
2023/06/21 13:37:55;;;;;;;2.70;2.58;;;;;;;;;;5051334;28;20213;-64
2023/06/21 13:40:22;;;;;;;2.67;2.58;;;;;;;;;;5068133;28;20287;-64
2023/06/21 13:42:49;;;;;;;2.50;2.40;;;;;;;;;;5057082;28;20219;-66
2023/06/21 13:45:16;;;;;;;2.80;2.70;;;;;;;;;;5050655;28;20413;-65
2023/06/21 13:47:45;;;;;;;2.75;2.65;;;;;;;;;;5066709;28;20218;-66
2023/06/21 13:50:12;;;;;;;2.47;2.38;;;;;;;;;;5056659;28;20230;-64
2023/06/21 13:52:39;;;;;;;3.50;3.08;;;;;;;;;;5053264;28;20684;-64
2023/06/21 13:55:09;;;;;;;2.78;2.58;;;;;;;;;;5055297;28;20738;-64
2023/06/21 13:57:40;;;;;;;2.65;2.45;;;;;;;;;;5051448;28;20345;-65
2023/06/21 14:00:13;;;;;;;2.95;2.80;;;;;;;;;;5067377;28;20281;-64
2023/06/21 14:02:40;;;;;;;2.60;2.50;;;;;;;;;;5050056;28;20659;-64
2023/06/21 14:05:09;;;;;;;2.47;2.38;;;;;;;;;;5046893;28;20293;-64
2023/06/21 14:07:36;;;;;;;2.72;2.53;;;;;;;;;;5047984;28;20294;-64
2023/06/21 14:10:04;;;;;;;2.20;2.10;;;;;;;;;;5064253;28;20226;-65
2023/06/21 14:12:31;;;;;;;3.22;2.92;;;;;;;;;;5055099;28;20260;-64
2023/06/21 14:14:58;;;;;;;2.45;2.25;;;;;;;;;;5046651;28;20206;-64
2023/06/21 14:17:25;;;;;;;2.70;2.53;;;;;;;;;;5051959;28;20206;-64
2023/06/21 14:19:52;;;;;;;2.08;2.00;;;;;;;;;;5060651;28;20210;-64
2023/06/21 14:22:20;;;;;;;2.65;2.55;;;;;;;;;;5063028;28;20241;-64
2023/06/21 14:24:47;;;;;;;3.38;2.47;;;;;;;;;;5056725;28;20673;-64
2023/06/21 14:27:14;;;;;;;3.80;2.55;;;;;;;;;;5055275;28;20210;-64
2023/06/21 14:29:45;;;;;;;2.20;2.10;;;;;;;;;;5057361;28;20231;-64
2023/06/21 14:32:12;;;;;;;2.60;2.40;;;;;;;;;;5046708;28;20199;-63
2023/06/21 14:34:43;;;;;;;2.50;2.40;;;;;;;;;;5052041;28;20203;-64
2023/06/21 14:37:11;;;;;;;2.40;2.30;;;;;;;;;;5046727;28;20215;-64
2023/06/21 14:39:39;;;;;;;2.47;2.38;;;;;;;;;;5047402;28;20210;-64
2023/06/21 14:42:07;;;;;;;2.67;2.55;;;;;;;;;;5046073;28;20221;-64
2023/06/21 14:44:34;;;;;;;2.72;2.60;;;;;;;;;;5051309;28;20634;-64
2023/06/21 14:47:01;;;;;;;2.50;2.40;;;;;;;;;;5052154;28;20219;-64
2023/06/21 14:49:28;;;;;;;2.70;2.50;;;;;;;;;;5045502;28;20242;-63